Thunderstorms From: 15-12-2017 06:00 Until: 16-12-2017 06:00 warning for: Thunderstorms Level: Yellow info button

Although rather usual in this region, locally or potentially dangerous phenomena are expected. (such as local winds, summer thunderstorms, rising streams or high waves) Be aware and pay attention to the latest weather updates, especially if you carry out activities exposed to weather or close to a stream or shoreline. 


Meteo18 Weather Cam more information Meteo18 Weather Cam


warning for Thunderstorms more information blitzortung!


Rain radar more information rain snow radar


Visit our other weather sites:

Template documentation
and downloads

And another site



Weather Underground History page Text

Daily Summary for July 9, 2017 Units:  English    Metric   Both
« Previous Day
Next Day »
Daily Weekly Monthly Yearly Custom
  High: Low: Average:
Temperature: 82.6 °F 63.1 °F 69.4 °F
Dew Point: 68 °F 61.7 °F 64.9 °F
Humidity: 97 % 52 % 87 %
Wind Speed: 20 mph 0 mph 1.6 mph
Wind Gust: 21 mph - -
Wind:- - SE
Pressure: 30 in 29.8 in -
Precipitation: 0.57 in    
Historical Graphs
 
 
Tabular Data for July 9, 2017
Time Temperature Dew Point Pressure Wind Wind Speed Wind Gust Humidity Rainfall Rate (Hourly)
00:02 67.3 °F 63.9 °F 30 in NNE 4 mph 4 mph 89 % 0.06 in
00:07 67.3 °F 64.2 °F 30 in NNE 2 mph 5 mph 90 % 0.05 in
00:12 67.1 °F 64.4 °F 30 in North 3 mph 5 mph 91 % 0.03 in
00:17 67.3 °F 64.2 °F 30 in NW 1 mph 6 mph 90 % 0.02 in
00:22 67.5 °F 64.4 °F 30 in NW 3 mph 6 mph 90 % 0.03 in
00:37 67.3 °F 64.6 °F 30 in NW 7 mph 7 mph 91 % 0.02 in
00:42 67.6 °F 64.2 °F 30 in NNW 1 mph 7 mph 89 % 0.01 in
00:47 67.6 °F 64.2 °F 30 in SSW 7 mph 7 mph 89 % 0.01 in
00:52 67.5 °F 64 °F 30 in WSW 3 mph 8 mph 89 % 0.01 in
00:57 67.6 °F 64 °F 30 in Calm   8 mph 88 % 0.01 in
01:02 67.5 °F 63.9 °F 30 in SSW 2 mph 8 mph 88 % 0.01 in
01:07 67.5 °F 63.9 °F 30 in Calm   9 mph 88 % 0.01 in
01:17 67.3 °F 63.9 °F 30 in Calm   8 mph 89 % 0.01 in
01:22 67.3 °F 64.2 °F 30 in Calm   2 mph 90 % 0 in
01:27 67.3 °F 64.2 °F 30 in Calm   1 mph 90 % 0 in
01:32 67.3 °F 64.2 °F 30 in Calm   1 mph 90 % 0 in
01:37 67.3 °F 64.2 °F 30 in Calm   1 mph 90 % 0 in
01:42 67.3 °F 64.6 °F 30 in Calm   1 mph 91 % 0 in
01:52 66.7 °F 64 °F 30 in Calm   2 mph 91 % 0 in
01:57 66.7 °F 64.4 °F 30 in SW 1 mph 2 mph 92 % 0 in
02:02 66.6 °F 64.2 °F 30 in Calm   2 mph 92 % 0 in
02:07 66.6 °F 64.2 °F 30 in Calm   2 mph 92 % 0 in
02:12 66.6 °F 64.4 °F 30 in Calm   2 mph 93 % 0 in
02:17 66.6 °F 64.4 °F 30 in Calm   1 mph 93 % 0 in
02:22 66.4 °F 64.2 °F 30 in Calm     93 % 0 in
02:27 66.6 °F 64.4 °F 30 in Calm   1 mph 93 % 0 in
02:32 66.6 °F 64.4 °F 30 in Calm   1 mph 93 % 0 in
02:42 66.6 °F 64.4 °F 30 in Calm   1 mph 93 % 0 in
02:52 66.6 °F 64.4 °F 30 in Calm   1 mph 93 % 0 in
02:57 66.4 °F 64.2 °F 30 in Calm   1 mph 93 % 0 in
03:02 66.4 °F 64.2 °F 29.9 in Calm   1 mph 93 % 0 in
03:07 66.2 °F 64 °F 29.9 in Calm   1 mph 93 % 0 in
03:12 66.2 °F 64 °F 29.9 in WNW 1 mph 1 mph 93 % 0 in
03:22 66 °F 63.9 °F 29.9 in Calm   2 mph 93 % 0 in
03:27 66 °F 63.9 °F 29.9 in SE 1 mph 2 mph 93 % 0 in
03:32 66 °F 64.2 °F 29.9 in Calm   2 mph 94 % 0 in
03:37 65.8 °F 64 °F 29.9 in Calm   2 mph 94 % 0 in
03:42 65.8 °F 64 °F 29.9 in Calm   2 mph 94 % 0 in
03:47 65.7 °F 63.9 °F 29.9 in SSE 1 mph 1 mph 94 % 0 in
03:52 65.5 °F 63.7 °F 29.9 in East 1 mph 1 mph 94 % 0 in
03:57 65.3 °F 63.5 °F 29.9 in Calm   2 mph 94 % 0 in
04:02 65.1 °F 63.3 °F 29.9 in Calm   2 mph 94 % 0 in
04:12 64.9 °F 63.5 °F 29.9 in Calm   1 mph 95 % 0 in
04:17 64.9 °F 63.5 °F 29.9 in Calm   1 mph 95 % 0 in
04:22 64.9 °F 63.5 °F 29.9 in Calm   1 mph 95 % 0 in
04:27 64.9 °F 63.5 °F 29.9 in Calm     95 % 0 in
04:32 64.8 °F 63.3 °F 29.9 in Calm     95 % 0 in
04:37 64.6 °F 63.1 °F 29.9 in Calm     95 % 0 in
04:42 64.6 °F 63.1 °F 29.9 in Calm     95 % 0 in
04:47 64.4 °F 63 °F 29.9 in Calm     95 % 0 in
04:52 64.2 °F 62.8 °F 29.9 in Calm     95 % 0 in
04:57 64.2 °F 62.8 °F 29.9 in Calm     95 % 0 in
05:02 64.2 °F 62.8 °F 29.9 in Calm     95 % 0 in
05:07 64.2 °F 63.1 °F 29.9 in Calm     96 % 0 in
05:12 64.2 °F 62.8 °F 29.9 in Calm     95 % 0 in
05:17 64 °F 62.6 °F 29.9 in Calm     95 % 0 in
05:22 64 °F 62.6 °F 29.9 in North 2 mph 2 mph 95 % 0 in
05:27 63.9 °F 62.8 °F 29.9 in North 2 mph 3 mph 96 % 0 in
05:32 63.9 °F 62.8 °F 29.9 in Calm   3 mph 96 % 0 in
05:37 63.9 °F 62.8 °F 29.9 in Calm   3 mph 96 % 0 in
05:42 63.7 °F 62.6 °F 29.9 in Calm   2 mph 96 % 0 in
05:47 63.7 °F 62.6 °F 29.9 in Calm     96 % 0 in
05:52 63.7 °F 62.6 °F 29.9 in Calm     96 % 0 in
05:57 63.7 °F 62.6 °F 29.9 in Calm     96 % 0 in
06:02 63.7 °F 62.6 °F 29.9 in Calm     96 % 0 in
06:07 63.9 °F 62.8 °F 29.9 in Calm     96 % 0 in
06:12 63.7 °F 62.6 °F 29.9 in Calm   1 mph 96 % 0 in
06:17 63.7 °F 62.6 °F 29.9 in Calm   1 mph 96 % 0 in
06:22 63.1 °F 61.7 °F 29.9 in Calm   1 mph 95 % 0 in
06:32 63.3 °F 62.2 °F 29.9 in Calm     96 % 0 in
06:37 63.5 °F 62.4 °F 29.9 in Calm     96 % 0 in
06:42 63.7 °F 62.6 °F 29.9 in Calm     96 % 0 in
06:47 63.7 °F 62.6 °F 29.9 in NNW 2 mph   96 % 0 in
06:52 63.7 °F 62.6 °F 29.9 in NW 3 mph 4 mph 96 % 0 in
06:57 63.7 °F 62.6 °F 29.9 in North 1 mph 5 mph 96 % 0 in
07:02 63.9 °F 62.8 °F 29.9 in Calm   5 mph 96 % 0 in
07:12 64.2 °F 63.1 °F 29.9 in NNW 2 mph 4 mph 96 % 0 in
07:17 64.6 °F 63.7 °F 29.9 in Calm   4 mph 97 % 0 in
07:22 64.9 °F 64 °F 29.9 in NNW 1 mph 3 mph 97 % 0 in
07:27 65.1 °F 64.2 °F 29.9 in North 3 mph 3 mph 97 % 0 in
07:32 65.5 °F 64.2 °F 29.9 in Calm   2 mph 96 % 0 in
07:37 65.7 °F 64.4 °F 29.9 in Calm   3 mph 96 % 0 in
07:42 65.7 °F 64.4 °F 29.9 in Calm   3 mph 96 % 0 in
07:47 65.8 °F 64.6 °F 29.9 in NNW 1 mph 3 mph 96 % 0 in
07:52 66 °F 64.8 °F 29.9 in North 1 mph 4 mph 96 % 0 in
07:57 66.2 °F 64.9 °F 29.9 in Calm   4 mph 96 % 0 in
08:02 66.4 °F 65.1 °F 29.9 in NNW 1 mph 4 mph 96 % 0 in
08:07 66.7 °F 65.5 °F 29.9 in NNW 2 mph 3 mph 96 % 0 in
08:12 66.9 °F 65.7 °F 29.9 in Calm   2 mph 96 % 0 in
08:17 67.3 °F 66 °F 29.9 in Calm   2 mph 96 % 0 in
08:22 67.8 °F 66.6 °F 29.9 in NNE 1 mph 2 mph 96 % 0 in
08:32 68.2 °F 66.7 °F 29.9 in Calm   3 mph 95 % 0 in
08:42 68.2 °F 66.4 °F 29.9 in Calm   3 mph 94 % 0 in
08:47 68.4 °F 66.2 °F 29.9 in Calm   3 mph 93 % 0 in
08:52 68.5 °F 66.4 °F 29.9 in Calm   3 mph 93 % 0 in
08:57 68.7 °F 66.6 °F 29.9 in Calm   2 mph 93 % 0 in
09:02 69.1 °F 66.9 °F 29.9 in NNE 1 mph 2 mph 93 % 0 in
09:07 69.1 °F 66.7 °F 29.9 in Calm   3 mph 92 % 0 in
09:12 69.3 °F 66.9 °F 29.9 in NE 2 mph 3 mph 92 % 0 in
09:17 69.1 °F 66.7 °F 29.9 in East 2 mph 3 mph 92 % 0 in
09:22 69.1 °F 66.7 °F 29.9 in ENE 2 mph 5 mph 92 % 0 in
09:27 68.9 °F 66.6 °F 29.9 in East 2 mph 5 mph 92 % 0 in
09:32 68.7 °F 66.4 °F 29.9 in NNE 1 mph 5 mph 92 % 0 in
09:37 68.7 °F 66.4 °F 29.9 in NE 4 mph 5 mph 92 % 0 in
09:42 68.5 °F 66.4 °F 29.9 in NNE 4 mph 6 mph 93 % 0 in
09:47 68.5 °F 66.4 °F 29.9 in ENE 4 mph 6 mph 93 % 0 in
09:52 68.5 °F 66.4 °F 29.9 in NNE 4 mph 6 mph 93 % 0 in
09:57 68.5 °F 66.4 °F 29.9 in NNE 7 mph 9 mph 93 % 0 in
10:02 68.5 °F 66.4 °F 29.9 in NNE 8 mph 9 mph 93 % 0 in
10:07 68.7 °F 66.6 °F 29.9 in NNE 6 mph 9 mph 93 % 0 in
10:12 69.1 °F 66.9 °F 29.9 in North 6 mph 9 mph 93 % 0 in
10:17 68.9 °F 66.6 °F 29.9 in NNE 7 mph 10 mph 92 % 0 in
10:22 69.1 °F 66.7 °F 29.9 in NE 5 mph 14 mph 92 % 0 in
10:32 69.6 °F 66.9 °F 29.9 in NNW 2 mph 14 mph 91 % 0 in
10:42 70.5 °F 66.7 °F 29.9 in NNE 1 mph 15 mph 88 % 0 in
10:47 71.2 °F 67.5 °F 29.9 in NW 3 mph 13 mph 88 % 0 in
10:52 71.6 °F 66.9 °F 29.9 in NNW 4 mph 9 mph 85 % 0 in
10:57 71.8 °F 66.7 °F 29.9 in East 1 mph 7 mph 84 % 0 in
11:02 72.1 °F 67.1 °F 29.9 in NE 6 mph 7 mph 84 % 0 in
11:07 72.3 °F 66.9 °F 29.9 in Calm   7 mph 83 % 0 in
11:12 72.9 °F 67.1 °F 29.9 in Calm   7 mph 82 % 0 in
11:17 73 °F 66.9 °F 29.9 in South 2 mph 7 mph 81 % 0 in
11:22 73.4 °F 67.6 °F 29.9 in SE 1 mph 3 mph 82 % 0 in
11:32 73.9 °F 67.8 °F 29.9 in Calm   4 mph 81 % 0 in
11:42 73.6 °F 67.1 °F 29.9 in Calm   7 mph 80 % 0 in
11:47 73.8 °F 67.6 °F 29.9 in Calm   4 mph 81 % 0 in
11:52 73.9 °F 67.1 °F 29.9 in Calm   4 mph 79 % 0 in
11:57 73.9 °F 67.5 °F 29.9 in Calm   4 mph 80 % 0 in
12:02 73.9 °F 66.6 °F 29.9 in East 2 mph 6 mph 78 % 0 in
12:07 73.9 °F 66.6 °F 29.9 in ENE 3 mph 8 mph 78 % 0 in
12:12 73.9 °F 67.1 °F 29.9 in ENE 1 mph 8 mph 79 % 0 in
12:17 74.5 °F 67.5 °F 29.9 in SE 1 mph 8 mph 79 % 0 in
12:22 75 °F 68 °F 29.9 in ESE 4 mph 8 mph 79 % 0 in
12:32 76.1 °F 67.3 °F 29.9 in NE 1 mph 7 mph 74 % 0 in
12:37 76.1 °F 67.3 °F 29.9 in ENE 1 mph 7 mph 74 % 0 in
12:47 75 °F 66.2 °F 29.9 in East 3 mph 8 mph 74 % 0 in
12:52 75 °F 66.6 °F 29.9 in Calm   8 mph 75 % 0 in
12:57 75.2 °F 66.4 °F 29.9 in ENE 4 mph 8 mph 74 % 0 in
13:02 75.2 °F 66.4 °F 29.9 in East 3 mph 7 mph 74 % 0 in
13:07 75.7 °F 66.4 °F 29.9 in East 4 mph 9 mph 73 % 0 in
13:12 75.7 °F 66 °F 29.9 in NNE 5 mph 9 mph 72 % 0 in
13:17 75.9 °F 65.8 °F 29.9 in ENE 4 mph 9 mph 71 % 0 in
13:22 75.9 °F 65.8 °F 29.9 in ENE 6 mph 8 mph 71 % 0 in
13:27 75.9 °F 65.8 °F 29.9 in ENE 6 mph 9 mph 71 % 0 in
13:32 76.3 °F 65.8 °F 29.9 in ENE 5 mph 9 mph 70 % 0 in
13:37 76.5 °F 66 °F 29.9 in East 4 mph 9 mph 70 % 0 in
13:42 76.6 °F 65.3 °F 29.9 in East 5 mph 9 mph 68 % 0 in
13:47 76.8 °F 65.8 °F 29.9 in East 4 mph 9 mph 69 % 0 in
13:52 77.2 °F 66.2 °F 29.9 in Calm   9 mph 69 % 0 in
13:57 77.9 °F 66 °F 29.9 in East 5 mph 9 mph 67 % 0 in
14:02 77.9 °F 66.6 °F 29.9 in NE 3 mph 8 mph 68 % 0 in
14:07 77.9 °F 66.9 °F 29.9 in ENE 4 mph 9 mph 69 % 0 in
14:12 77.7 °F 66.7 °F 29.9 in ENE 3 mph 9 mph 69 % 0 in
14:17 78.1 °F 67.1 °F 29.9 in ENE 3 mph 8 mph 69 % 0 in
14:27 78.1 °F 67.1 °F 29.9 in ENE 4 mph 7 mph 69 % 0 in
14:37 78.1 °F 66.2 °F 29.9 in ENE 1 mph 6 mph 67 % 0 in
14:42 77.7 °F 66.4 °F 29.9 in ESE 1 mph 6 mph 68 % 0 in
14:47 77.7 °F 66.4 °F 29.9 in East 1 mph 6 mph 68 % 0 in
14:52 77.7 °F 65.8 °F 29.9 in NE 1 mph 5 mph 67 % 0 in
15:02 77.9 °F 64.8 °F 29.9 in ENE 2 mph 4 mph 64 % 0 in
15:07 78.1 °F 64.9 °F 29.9 in NE 1 mph 4 mph 64 % 0 in
15:12 78.1 °F 63.5 °F 29.9 in NE 3 mph 4 mph 61 % 0 in
15:17 78.3 °F 64.6 °F 29.9 in East 2 mph 5 mph 63 % 0 in
15:22 78.1 °F 63.1 °F 29.9 in NE 2 mph 5 mph 60 % 0 in
15:27 78.1 °F 63.5 °F 29.9 in NE 3 mph 5 mph 61 % 0 in
15:32 78.3 °F 64.2 °F 29.9 in ENE 1 mph 5 mph 62 % 0 in
15:37 78.1 °F 64.4 °F 29.9 in NE 2 mph 3 mph 63 % 0 in
15:42 78.1 °F 64.4 °F 29.9 in NE 4 mph 4 mph 63 % 0 in
15:47 77.9 °F 64.8 °F 29.9 in NNE 3 mph 5 mph 64 % 0 in
15:52 77.9 °F 65.1 °F 29.9 in NNE 6 mph 7 mph 65 % 0 in
15:57 78.1 °F 64.9 °F 29.9 in NNW 2 mph 7 mph 64 % 0 in
16:02 78.6 °F 65.5 °F 29.9 in North 3 mph 7 mph 64 % 0 in
16:07 78.8 °F 64.2 °F 29.9 in North 2 mph 7 mph 61 % 0 in
16:12 79.2 °F 65.8 °F 29.9 in North 4 mph 7 mph 64 % 0 in
16:17 79.5 °F 65.3 °F 29.9 in NNW 3 mph 7 mph 62 % 0 in
16:22 79.7 °F 64.6 °F 29.8 in NNW 2 mph 8 mph 60 % 0 in
16:27 80.4 °F 65.3 °F 29.8 in NNW 3 mph 8 mph 60 % 0 in
16:32 81.1 °F 64.9 °F 29.8 in Calm   7 mph 58 % 0 in
16:37 81.7 °F 64.4 °F 29.8 in ENE 1 mph 5 mph 56 % 0 in
16:42 82.2 °F 64.9 °F 29.8 in ENE 5 mph 5 mph 56 % 0 in
16:47 82.6 °F 64.8 °F 29.8 in ENE 2 mph 6 mph 55 % 0 in
16:57 82.2 °F 62.8 °F 29.8 in SE 1 mph 9 mph 52 % 0 in
17:02 82 °F 62.6 °F 29.8 in ENE 4 mph 10 mph 52 % 0 in
17:07 81.9 °F 63 °F 29.8 in West 1 mph 10 mph 53 % 0 in
17:12 81.9 °F 64 °F 29.8 in ENE 2 mph 8 mph 55 % 0 in
17:17 80.8 °F 66 °F 29.8 in ESE 1 mph 8 mph 61 % 0.02 in
17:22 76.8 °F 64.9 °F 29.8 in ENE 8 mph 15 mph 67 % 0.02 in
17:27 72.3 °F 63.1 °F 29.8 in ENE 11 mph 15 mph 73 % 0.02 in
17:32 70.3 °F 63.5 °F 29.9 in NE 6 mph 21 mph 79 % 0.02 in
17:37 69.4 °F 63 °F 29.9 in NE 4 mph 21 mph 80 % 0.03 in
17:42 69.1 °F 63.3 °F 29.9 in NNW 2 mph 18 mph 82 % 0.05 in
17:47 68.7 °F 62.6 °F 29.9 in NE 9 mph 14 mph 81 % 0.09 in
17:52 67.5 °F 62.8 °F 29.9 in NE 20 mph 20 mph 85 % 0.18 in
17:57 66 °F 62.1 °F 29.9 in NE 14 mph 20 mph 87 % 0.24 in
18:02 66.6 °F 63.1 °F 29.9 in ENE 6 mph 20 mph 89 % 0.33 in
18:07 66.7 °F 63.7 °F 29.9 in NW 2 mph 20 mph 90 % 0.36 in
18:12 66.7 °F 64 °F 29.9 in NW 2 mph 19 mph 91 % 0.41 in
18:17 66.7 °F 64 °F 29.9 in Calm   14 mph 91 % 0.46 in
18:22 66.7 °F 64.4 °F 29.9 in SE 2 mph 5 mph 92 % 0.5 in
18:27 66.7 °F 64.4 °F 29.9 in SSW 1 mph 4 mph 92 % 0.5 in
18:32 66.9 °F 64.8 °F 29.9 in South 1 mph 4 mph 93 % 0.51 in
18:37 66.9 °F 64.8 °F 29.9 in SSE 3 mph 4 mph 93 % 0.52 in
18:42 66.9 °F 64.8 °F 29.8 in Calm   4 mph 93 % 0.47 in
18:47 66.9 °F 64.8 °F 29.8 in Calm   4 mph 93 % 0.44 in
18:52 66.9 °F 64.8 °F 29.8 in Calm   3 mph 93 % 0.38 in
18:57 66.9 °F 64.8 °F 29.8 in Calm   2 mph 93 % 0.29 in
19:02 67.3 °F 65.1 °F 29.8 in WNW 1 mph 2 mph 93 % 0.21 in
19:07 67.5 °F 65.7 °F 29.8 in Calm   3 mph 94 % 0.18 in
19:12 67.6 °F 65.5 °F 29.8 in Calm   3 mph 93 % 0.13 in
19:17 67.8 °F 65.7 °F 29.8 in Calm   3 mph 93 % 0.07 in
19:22 67.8 °F 65.7 °F 29.8 in Calm   3 mph 93 % 0.04 in
19:32 68.4 °F 66.6 °F 29.8 in Calm   2 mph 94 % 0.02 in
19:37 68.5 °F 66.4 °F 29.9 in Calm   2 mph 93 % 0.01 in
19:42 68.5 °F 66.7 °F 29.9 in Calm   1 mph 94 % 0.01 in
19:47 68.5 °F 66.4 °F 29.9 in WNW 1 mph 1 mph 93 % 0.01 in
19:52 68.5 °F 66.4 °F 29.9 in Calm   1 mph 93 % 0 in
19:57 68.5 °F 66.4 °F 29.9 in Calm   1 mph 93 % 0 in
20:02 68.5 °F 66.4 °F 29.9 in Calm   1 mph 93 % 0 in
20:12 68.4 °F 66.2 °F 29.9 in Calm     93 % 0 in
20:17 68.2 °F 66.4 °F 29.9 in Calm     94 % 0 in
20:22 68.2 °F 66.4 °F 29.9 in Calm   1 mph 94 % 0 in
20:27 68 °F 66.2 °F 29.9 in Calm   3 mph 94 % 0 in
20:32 67.8 °F 65.7 °F 29.9 in Calm   3 mph 93 % 0 in
20:37 68 °F 65.8 °F 29.9 in West 1 mph 3 mph 93 % 0 in
20:42 68.4 °F 66.6 °F 29.9 in West 1 mph 3 mph 94 % 0 in
20:47 68.4 °F 66.6 °F 29.9 in West 2 mph 3 mph 94 % 0 in
20:52 68.4 °F 66.6 °F 29.9 in WNW 2 mph 3 mph 94 % 0 in
20:57 68.2 °F 66.4 °F 29.9 in Calm   4 mph 94 % 0 in
21:02 68.2 °F 66.4 °F 29.9 in Calm   4 mph 94 % 0 in
21:07 67.8 °F 66 °F 29.9 in NNW 1 mph 4 mph 94 % 0 in
21:12 67.6 °F 65.8 °F 29.9 in Calm   2 mph 94 % 0 in
21:17 67.6 °F 65.8 °F 29.9 in NW 1 mph 2 mph 94 % 0 in
21:22 67.6 °F 65.8 °F 29.9 in North 1 mph 2 mph 94 % 0 in
21:32 67.6 °F 65.8 °F 29.9 in Calm   2 mph 94 % 0 in
21:37 67.5 °F 65.7 °F 29.9 in Calm   2 mph 94 % 0 in
21:42 67.6 °F 66.2 °F 29.9 in NE 2 mph 2 mph 95 % 0 in
21:47 67.5 °F 66 °F 29.9 in ENE 1 mph 3 mph 95 % 0 in
21:52 67.3 °F 65.5 °F 29.9 in ENE 2 mph 3 mph 94 % 0 in
21:57 67.1 °F 65.7 °F 29.9 in NE 2 mph 5 mph 95 % 0 in
22:02 66.9 °F 65.5 °F 29.9 in Calm   5 mph 95 % 0 in
22:07 66.9 °F 65.5 °F 29.9 in Calm   4 mph 95 % 0 in
22:12 66.7 °F 65.3 °F 29.9 in Calm   2 mph 95 % 0 in
22:17 66.7 °F 65.3 °F 29.9 in Calm     95 % 0 in
22:22 66.6 °F 65.1 °F 29.9 in Calm     95 % 0 in
22:27 66.6 °F 65.1 °F 29.9 in Calm     95 % 0 in
22:32 66.6 °F 65.1 °F 29.9 in Calm     95 % 0 in
22:37 66.6 °F 65.1 °F 29.9 in Calm     95 % 0 in
22:42 66.6 °F 65.1 °F 29.9 in Calm     95 % 0 in
22:52 66.6 °F 65.1 °F 29.9 in Calm     95 % 0 in
22:57 66.4 °F 64.9 °F 29.9 in Calm     95 % 0 in
23:02 66.4 °F 65.1 °F 29.9 in Calm     96 % 0 in
23:07 66.4 °F 65.1 °F 29.9 in Calm     96 % 0 in
23:12 66.4 °F 65.1 °F 29.9 in Calm     96 % 0 in
23:17 66.4 °F 65.1 °F 29.9 in Calm     96 % 0 in
23:22 66.4 °F 65.1 °F 29.9 in Calm     96 % 0 in
23:27 66.2 °F 64.9 °F 29.9 in WSW 2 mph 2 mph 96 % 0 in
23:32 65.8 °F 64.6 °F 29.9 in West 1 mph 4 mph 96 % 0 in
23:37 65.7 °F 64.4 °F 29.9 in Calm   4 mph 96 % 0 in
23:42 65.7 °F 64.4 °F 29.9 in Calm   4 mph 96 % 0 in
23:52 65.5 °F 64.2 °F 29.9 in Calm   1 mph 96 % 0 in
23:57 65.5 °F 64.2 °F 29.9 in Calm   1 mph 96 % 0 in
Meteo18
Compliments of Weather Underground - 4 mb

Script developed by  Jim McMurry - jmcmurry@mwt.net Adapted for the template by  Wim van der Kuil - Leuven-Template.eu

You find our weather info also at:

European Weather Network

Weather Underground

Equipment we use:

Weather-station
Davis Vue

Weather-program
Meteohub

Weather-server
Raspberry PI 2 B+

Provider
1 and 1

Davis Vue

Meteohub

Raspberry PI 2 B+

1 and 1